sensor_id;sensor_type;location;lat;lon;timestamp;temperature;humidity
12013;DHT22;6065;48.138;16.402;2023-06-04T00:02:03;18.50;80.20
12013;DHT22;6065;48.138;16.402;2023-06-04T00:04:30;18.50;80.30
12013;DHT22;6065;48.138;16.402;2023-06-04T00:06:56;18.50;80.10
12013;DHT22;6065;48.138;16.402;2023-06-04T00:09:23;18.40;80.20
12013;DHT22;6065;48.138;16.402;2023-06-04T00:11:50;18.40;80.30
12013;DHT22;6065;48.138;16.402;2023-06-04T00:14:16;18.50;80.60
12013;DHT22;6065;48.138;16.402;2023-06-04T00:16:43;18.50;80.40
12013;DHT22;6065;48.138;16.402;2023-06-04T00:19:12;18.40;80.50
12013;DHT22;6065;48.138;16.402;2023-06-04T00:21:38;18.30;81.00
12013;DHT22;6065;48.138;16.402;2023-06-04T00:24:05;18.30;81.00
12013;DHT22;6065;48.138;16.402;2023-06-04T00:26:32;18.30;81.20
12013;DHT22;6065;48.138;16.402;2023-06-04T00:29:00;18.20;81.30
12013;DHT22;6065;48.138;16.402;2023-06-04T00:31:26;18.20;81.50
12013;DHT22;6065;48.138;16.402;2023-06-04T00:33:53;18.20;81.50
12013;DHT22;6065;48.138;16.402;2023-06-04T00:36:21;18.20;81.60
12013;DHT22;6065;48.138;16.402;2023-06-04T00:38:48;18.20;82.00
12013;DHT22;6065;48.138;16.402;2023-06-04T00:41:14;18.20;82.10
12013;DHT22;6065;48.138;16.402;2023-06-04T00:43:42;18.10;82.30
12013;DHT22;6065;48.138;16.402;2023-06-04T00:46:11;18.10;82.50
12013;DHT22;6065;48.138;16.402;2023-06-04T00:48:43;18.00;82.70
12013;DHT22;6065;48.138;16.402;2023-06-04T00:51:10;18.00;82.90
12013;DHT22;6065;48.138;16.402;2023-06-04T00:53:38;18.00;83.30
12013;DHT22;6065;48.138;16.402;2023-06-04T00:56:05;18.00;83.10
12013;DHT22;6065;48.138;16.402;2023-06-04T00:58:33;17.90;82.70
12013;DHT22;6065;48.138;16.402;2023-06-04T01:01:03;17.90;83.10
12013;DHT22;6065;48.138;16.402;2023-06-04T01:03:30;17.90;83.20
12013;DHT22;6065;48.138;16.402;2023-06-04T01:06:01;17.90;83.20
12013;DHT22;6065;48.138;16.402;2023-06-04T01:08:29;17.90;83.20
12013;DHT22;6065;48.138;16.402;2023-06-04T01:10:57;17.90;83.50
12013;DHT22;6065;48.138;16.402;2023-06-04T01:13:24;17.90;83.50
12013;DHT22;6065;48.138;16.402;2023-06-04T01:15:51;17.80;83.70
12013;DHT22;6065;48.138;16.402;2023-06-04T01:18:19;17.80;83.50
12013;DHT22;6065;48.138;16.402;2023-06-04T01:20:53;17.80;83.60
12013;DHT22;6065;48.138;16.402;2023-06-04T01:23:32;17.80;83.90
12013;DHT22;6065;48.138;16.402;2023-06-04T01:26:02;17.80;84.50
12013;DHT22;6065;48.138;16.402;2023-06-04T01:28:29;17.80;84.30
12013;DHT22;6065;48.138;16.402;2023-06-04T01:30:57;17.70;84.40
12013;DHT22;6065;48.138;16.402;2023-06-04T01:33:25;17.70;84.50
12013;DHT22;6065;48.138;16.402;2023-06-04T01:35:51;17.70;84.20
12013;DHT22;6065;48.138;16.402;2023-06-04T01:38:18;17.60;84.30
12013;DHT22;6065;48.138;16.402;2023-06-04T01:40:45;17.60;84.50
12013;DHT22;6065;48.138;16.402;2023-06-04T01:43:13;17.60;84.40
12013;DHT22;6065;48.138;16.402;2023-06-04T01:45:40;17.60;84.50
12013;DHT22;6065;48.138;16.402;2023-06-04T01:48:07;17.60;84.60
12013;DHT22;6065;48.138;16.402;2023-06-04T01:50:34;17.60;84.70
12013;DHT22;6065;48.138;16.402;2023-06-04T01:53:00;17.60;85.00
12013;DHT22;6065;48.138;16.402;2023-06-04T01:55:27;17.50;85.10
12013;DHT22;6065;48.138;16.402;2023-06-04T01:57:58;17.50;85.20
12013;DHT22;6065;48.138;16.402;2023-06-04T02:00:26;17.50;85.40
12013;DHT22;6065;48.138;16.402;2023-06-04T02:02:57;17.40;85.10
12013;DHT22;6065;48.138;16.402;2023-06-04T02:05:25;17.40;85.20
12013;DHT22;6065;48.138;16.402;2023-06-04T02:07:52;17.40;85.00
12013;DHT22;6065;48.138;16.402;2023-06-04T02:10:20;17.40;84.90
12013;DHT22;6065;48.138;16.402;2023-06-04T02:12:53;17.40;84.80
12013;DHT22;6065;48.138;16.402;2023-06-04T02:15:21;17.30;85.10
12013;DHT22;6065;48.138;16.402;2023-06-04T02:17:50;17.30;85.70
12013;DHT22;6065;48.138;16.402;2023-06-04T02:20:17;17.30;85.90
12013;DHT22;6065;48.138;16.402;2023-06-04T02:22:43;17.30;85.80
12013;DHT22;6065;48.138;16.402;2023-06-04T02:25:10;17.30;85.70
12013;DHT22;6065;48.138;16.402;2023-06-04T02:27:37;17.20;86.00
12013;DHT22;6065;48.138;16.402;2023-06-04T02:30:04;17.10;86.20
12013;DHT22;6065;48.138;16.402;2023-06-04T02:32:31;17.10;86.50
12013;DHT22;6065;48.138;16.402;2023-06-04T02:35:00;17.10;86.20
12013;DHT22;6065;48.138;16.402;2023-06-04T02:37:27;17.10;86.50
12013;DHT22;6065;48.138;16.402;2023-06-04T02:39:53;17.10;86.40
12013;DHT22;6065;48.138;16.402;2023-06-04T02:42:20;17.10;86.20
12013;DHT22;6065;48.138;16.402;2023-06-04T02:44:47;17.10;86.10
12013;DHT22;6065;48.138;16.402;2023-06-04T02:47:14;17.10;86.00
12013;DHT22;6065;48.138;16.402;2023-06-04T02:49:40;17.10;85.80
12013;DHT22;6065;48.138;16.402;2023-06-04T02:52:08;17.10;86.00
12013;DHT22;6065;48.138;16.402;2023-06-04T02:54:35;17.10;86.50
12013;DHT22;6065;48.138;16.402;2023-06-04T02:57:02;17.10;86.60
12013;DHT22;6065;48.138;16.402;2023-06-04T02:59:28;17.00;86.20
12013;DHT22;6065;48.138;16.402;2023-06-04T03:01:55;17.00;86.40
12013;DHT22;6065;48.138;16.402;2023-06-04T03:04:22;17.00;86.50
12013;DHT22;6065;48.138;16.402;2023-06-04T03:06:48;17.00;86.80
12013;DHT22;6065;48.138;16.402;2023-06-04T03:09:24;17.10;86.90
12013;DHT22;6065;48.138;16.402;2023-06-04T03:11:51;17.10;86.80
12013;DHT22;6065;48.138;16.402;2023-06-04T03:14:17;17.10;87.60
12013;DHT22;6065;48.138;16.402;2023-06-04T03:16:44;17.00;87.50
12013;DHT22;6065;48.138;16.402;2023-06-04T03:19:11;17.00;87.60
12013;DHT22;6065;48.138;16.402;2023-06-04T03:21:38;17.00;87.40
12013;DHT22;6065;48.138;16.402;2023-06-04T03:24:05;17.00;87.70
12013;DHT22;6065;48.138;16.402;2023-06-04T03:26:33;16.90;87.80
12013;DHT22;6065;48.138;16.402;2023-06-04T03:28:59;16.90;88.10
12013;DHT22;6065;48.138;16.402;2023-06-04T03:31:26;16.90;88.20
12013;DHT22;6065;48.138;16.402;2023-06-04T03:33:53;16.90;87.90
12013;DHT22;6065;48.138;16.402;2023-06-04T03:36:19;16.90;88.30
12013;DHT22;6065;48.138;16.402;2023-06-04T03:38:57;16.90;88.20
12013;DHT22;6065;48.138;16.402;2023-06-04T03:41:23;16.90;87.80
12013;DHT22;6065;48.138;16.402;2023-06-04T03:43:52;16.90;87.90
12013;DHT22;6065;48.138;16.402;2023-06-04T03:46:19;16.90;88.20
12013;DHT22;6065;48.138;16.402;2023-06-04T03:48:46;16.90;88.60
12013;DHT22;6065;48.138;16.402;2023-06-04T03:51:12;16.90;89.00
12013;DHT22;6065;48.138;16.402;2023-06-04T03:53:39;17.00;89.30
12013;DHT22;6065;48.138;16.402;2023-06-04T03:56:07;17.00;89.30
12013;DHT22;6065;48.138;16.402;2023-06-04T03:58:34;16.90;89.00
12013;DHT22;6065;48.138;16.402;2023-06-04T04:01:03;17.00;88.80
12013;DHT22;6065;48.138;16.402;2023-06-04T04:03:30;17.00;88.60
12013;DHT22;6065;48.138;16.402;2023-06-04T04:05:56;17.00;88.70
12013;DHT22;6065;48.138;16.402;2023-06-04T04:08:24;17.00;88.80
12013;DHT22;6065;48.138;16.402;2023-06-04T04:10:51;16.90;88.90
12013;DHT22;6065;48.138;16.402;2023-06-04T04:13:17;16.90;89.10
12013;DHT22;6065;48.138;16.402;2023-06-04T04:15:44;17.00;89.30
12013;DHT22;6065;48.138;16.402;2023-06-04T04:18:12;17.00;89.20
12013;DHT22;6065;48.138;16.402;2023-06-04T04:20:42;16.90;89.40
12013;DHT22;6065;48.138;16.402;2023-06-04T04:23:08;16.90;89.70
12013;DHT22;6065;48.138;16.402;2023-06-04T04:25:36;16.90;89.80
12013;DHT22;6065;48.138;16.402;2023-06-04T04:28:03;16.90;89.80
12013;DHT22;6065;48.138;16.402;2023-06-04T04:30:32;17.00;89.60
12013;DHT22;6065;48.138;16.402;2023-06-04T04:33:00;17.00;89.60
12013;DHT22;6065;48.138;16.402;2023-06-04T04:35:28;17.00;89.90
12013;DHT22;6065;48.138;16.402;2023-06-04T04:37:57;17.00;90.10
12013;DHT22;6065;48.138;16.402;2023-06-04T04:40:24;17.00;90.30
12013;DHT22;6065;48.138;16.402;2023-06-04T04:42:51;17.00;90.50
12013;DHT22;6065;48.138;16.402;2023-06-04T04:45:18;17.00;90.50
12013;DHT22;6065;48.138;16.402;2023-06-04T04:47:44;17.00;90.50
12013;DHT22;6065;48.138;16.402;2023-06-04T04:50:12;17.00;90.50
12013;DHT22;6065;48.138;16.402;2023-06-04T04:52:40;17.00;90.60
12013;DHT22;6065;48.138;16.402;2023-06-04T04:55:07;17.10;90.80
12013;DHT22;6065;48.138;16.402;2023-06-04T04:57:34;17.10;90.70
12013;DHT22;6065;48.138;16.402;2023-06-04T05:00:01;17.10;90.60
12013;DHT22;6065;48.138;16.402;2023-06-04T05:02:30;17.10;90.50
12013;DHT22;6065;48.138;16.402;2023-06-04T05:04:57;17.10;90.50
12013;DHT22;6065;48.138;16.402;2023-06-04T05:07:23;17.20;90.90
12013;DHT22;6065;48.138;16.402;2023-06-04T05:09:51;17.20;91.00
12013;DHT22;6065;48.138;16.402;2023-06-04T05:12:18;17.20;91.00
12013;DHT22;6065;48.138;16.402;2023-06-04T05:14:45;17.20;90.80
12013;DHT22;6065;48.138;16.402;2023-06-04T05:17:12;17.20;90.80
12013;DHT22;6065;48.138;16.402;2023-06-04T05:19:41;17.20;90.80
12013;DHT22;6065;48.138;16.402;2023-06-04T05:22:08;17.20;90.90
12013;DHT22;6065;48.138;16.402;2023-06-04T05:24:35;17.20;91.00
12013;DHT22;6065;48.138;16.402;2023-06-04T05:27:03;17.20;91.40
12013;DHT22;6065;48.138;16.402;2023-06-04T05:29:30;17.20;91.20
12013;DHT22;6065;48.138;16.402;2023-06-04T05:31:56;17.30;91.20
12013;DHT22;6065;48.138;16.402;2023-06-04T05:34:23;17.30;91.20
12013;DHT22;6065;48.138;16.402;2023-06-04T05:36:52;17.30;91.50
12013;DHT22;6065;48.138;16.402;2023-06-04T05:39:19;17.30;91.40
12013;DHT22;6065;48.138;16.402;2023-06-04T05:41:49;17.30;91.60
12013;DHT22;6065;48.138;16.402;2023-06-04T05:44:17;17.20;91.60
12013;DHT22;6065;48.138;16.402;2023-06-04T05:46:43;17.20;91.40
12013;DHT22;6065;48.138;16.402;2023-06-04T05:49:10;17.20;91.30
12013;DHT22;6065;48.138;16.402;2023-06-04T05:51:37;17.20;91.30
12013;DHT22;6065;48.138;16.402;2023-06-04T05:54:03;17.30;91.30
12013;DHT22;6065;48.138;16.402;2023-06-04T05:56:30;17.30;91.30
12013;DHT22;6065;48.138;16.402;2023-06-04T05:58:57;17.30;91.30
12013;DHT22;6065;48.138;16.402;2023-06-04T06:01:25;17.30;91.50
12013;DHT22;6065;48.138;16.402;2023-06-04T06:03:52;17.30;91.70
12013;DHT22;6065;48.138;16.402;2023-06-04T06:06:18;17.30;91.40
12013;DHT22;6065;48.138;16.402;2023-06-04T06:08:46;17.40;91.50
12013;DHT22;6065;48.138;16.402;2023-06-04T06:11:13;17.40;91.60
12013;DHT22;6065;48.138;16.402;2023-06-04T06:13:39;17.30;91.50
12013;DHT22;6065;48.138;16.402;2023-06-04T06:16:06;17.40;91.30
12013;DHT22;6065;48.138;16.402;2023-06-04T06:18:34;17.40;91.20
12013;DHT22;6065;48.138;16.402;2023-06-04T06:21:01;17.40;91.50
12013;DHT22;6065;48.138;16.402;2023-06-04T06:23:28;17.50;91.40
12013;DHT22;6065;48.138;16.402;2023-06-04T06:25:54;17.50;91.30
12013;DHT22;6065;48.138;16.402;2023-06-04T06:28:21;17.50;91.10
12013;DHT22;6065;48.138;16.402;2023-06-04T06:30:48;17.50;91.10
12013;DHT22;6065;48.138;16.402;2023-06-04T06:33:14;17.50;91.30
12013;DHT22;6065;48.138;16.402;2023-06-04T06:35:43;17.50;91.40
12013;DHT22;6065;48.138;16.402;2023-06-04T06:38:11;17.50;91.30
12013;DHT22;6065;48.138;16.402;2023-06-04T06:40:40;17.60;91.60
12013;DHT22;6065;48.138;16.402;2023-06-04T06:43:07;17.60;91.60
12013;DHT22;6065;48.138;16.402;2023-06-04T06:45:33;17.60;91.40
12013;DHT22;6065;48.138;16.402;2023-06-04T06:48:00;17.60;91.40
12013;DHT22;6065;48.138;16.402;2023-06-04T06:50:27;17.60;91.60
12013;DHT22;6065;48.138;16.402;2023-06-04T06:52:55;17.60;92.00
12013;DHT22;6065;48.138;16.402;2023-06-04T06:55:22;17.60;92.00
12013;DHT22;6065;48.138;16.402;2023-06-04T06:57:49;17.60;91.80
12013;DHT22;6065;48.138;16.402;2023-06-04T07:00:15;17.60;91.90
12013;DHT22;6065;48.138;16.402;2023-06-04T07:02:42;17.70;91.70
12013;DHT22;6065;48.138;16.402;2023-06-04T07:05:10;17.70;91.60
12013;DHT22;6065;48.138;16.402;2023-06-04T07:07:37;17.70;91.70
12013;DHT22;6065;48.138;16.402;2023-06-04T07:10:05;17.70;91.80
12013;DHT22;6065;48.138;16.402;2023-06-04T07:12:32;17.70;91.70
12013;DHT22;6065;48.138;16.402;2023-06-04T07:14:59;17.70;91.70
12013;DHT22;6065;48.138;16.402;2023-06-04T07:17:26;17.70;91.90
12013;DHT22;6065;48.138;16.402;2023-06-04T07:19:52;17.80;92.10
12013;DHT22;6065;48.138;16.402;2023-06-04T07:22:19;17.80;92.10
12013;DHT22;6065;48.138;16.402;2023-06-04T07:24:46;17.80;92.10
12013;DHT22;6065;48.138;16.402;2023-06-04T07:27:14;17.90;92.20
12013;DHT22;6065;48.138;16.402;2023-06-04T07:29:43;17.90;92.00
12013;DHT22;6065;48.138;16.402;2023-06-04T07:32:09;17.80;91.70
12013;DHT22;6065;48.138;16.402;2023-06-04T07:34:37;17.80;91.70
12013;DHT22;6065;48.138;16.402;2023-06-04T07:37:04;17.80;91.70
12013;DHT22;6065;48.138;16.402;2023-06-04T07:39:31;17.70;91.60
12013;DHT22;6065;48.138;16.402;2023-06-04T07:41:57;17.80;91.80
12013;DHT22;6065;48.138;16.402;2023-06-04T07:44:25;17.80;91.90
12013;DHT22;6065;48.138;16.402;2023-06-04T07:46:52;17.90;92.00
12013;DHT22;6065;48.138;16.402;2023-06-04T07:49:19;17.90;92.10
12013;DHT22;6065;48.138;16.402;2023-06-04T07:51:46;17.90;92.10
12013;DHT22;6065;48.138;16.402;2023-06-04T07:54:13;18.00;92.00
12013;DHT22;6065;48.138;16.402;2023-06-04T07:56:39;18.00;91.90
12013;DHT22;6065;48.138;16.402;2023-06-04T07:59:06;18.00;92.20
12013;DHT22;6065;48.138;16.402;2023-06-04T08:01:34;18.10;92.30
12013;DHT22;6065;48.138;16.402;2023-06-04T08:04:01;18.20;92.00
12013;DHT22;6065;48.138;16.402;2023-06-04T08:06:27;18.20;91.50
12013;DHT22;6065;48.138;16.402;2023-06-04T08:08:54;18.20;91.70
12013;DHT22;6065;48.138;16.402;2023-06-04T08:11:21;18.20;91.70
12013;DHT22;6065;48.138;16.402;2023-06-04T08:13:49;18.30;91.60
12013;DHT22;6065;48.138;16.402;2023-06-04T08:16:16;18.30;91.60
12013;DHT22;6065;48.138;16.402;2023-06-04T08:18:44;18.30;91.70
12013;DHT22;6065;48.138;16.402;2023-06-04T08:21:11;18.30;91.80
12013;DHT22;6065;48.138;16.402;2023-06-04T08:23:37;18.30;91.90
12013;DHT22;6065;48.138;16.402;2023-06-04T08:26:04;18.40;91.90
12013;DHT22;6065;48.138;16.402;2023-06-04T08:28:32;18.50;91.90
12013;DHT22;6065;48.138;16.402;2023-06-04T08:30:59;18.60;92.00
12013;DHT22;6065;48.138;16.402;2023-06-04T08:33:25;18.60;92.00
12013;DHT22;6065;48.138;16.402;2023-06-04T08:35:54;18.70;92.00
12013;DHT22;6065;48.138;16.402;2023-06-04T08:38:20;18.80;91.70
12013;DHT22;6065;48.138;16.402;2023-06-04T08:40:48;18.90;91.90
12013;DHT22;6065;48.138;16.402;2023-06-04T08:43:18;18.90;91.80
12013;DHT22;6065;48.138;16.402;2023-06-04T08:45:45;19.00;92.30
12013;DHT22;6065;48.138;16.402;2023-06-04T08:48:15;19.00;92.20
12013;DHT22;6065;48.138;16.402;2023-06-04T08:50:44;19.10;91.70
12013;DHT22;6065;48.138;16.402;2023-06-04T08:53:14;19.10;91.40
12013;DHT22;6065;48.138;16.402;2023-06-04T08:55:41;19.10;91.70
12013;DHT22;6065;48.138;16.402;2023-06-04T08:58:09;19.10;91.80
12013;DHT22;6065;48.138;16.402;2023-06-04T09:00:36;19.10;92.40
12013;DHT22;6065;48.138;16.402;2023-06-04T09:03:03;19.20;93.10
12013;DHT22;6065;48.138;16.402;2023-06-04T09:05:30;19.20;93.00
12013;DHT22;6065;48.138;16.402;2023-06-04T09:07:59;19.20;93.00
12013;DHT22;6065;48.138;16.402;2023-06-04T09:10:28;19.20;92.80
12013;DHT22;6065;48.138;16.402;2023-06-04T09:12:56;19.20;93.00
12013;DHT22;6065;48.138;16.402;2023-06-04T09:15:23;19.20;93.00
12013;DHT22;6065;48.138;16.402;2023-06-04T09:17:50;19.30;93.10
12013;DHT22;6065;48.138;16.402;2023-06-04T09:20:20;19.40;92.60
12013;DHT22;6065;48.138;16.402;2023-06-04T09:22:47;19.40;92.50
12013;DHT22;6065;48.138;16.402;2023-06-04T09:25:19;19.50;92.70
12013;DHT22;6065;48.138;16.402;2023-06-04T09:27:47;19.60;92.30
12013;DHT22;6065;48.138;16.402;2023-06-04T09:30:14;19.60;92.20
12013;DHT22;6065;48.138;16.402;2023-06-04T09:32:41;19.60;92.20
12013;DHT22;6065;48.138;16.402;2023-06-04T09:35:08;19.70;92.10
12013;DHT22;6065;48.138;16.402;2023-06-04T09:37:37;19.70;92.00
12013;DHT22;6065;48.138;16.402;2023-06-04T09:40:04;19.70;91.50
12013;DHT22;6065;48.138;16.402;2023-06-04T09:42:41;19.70;91.80
12013;DHT22;6065;48.138;16.402;2023-06-04T09:45:09;19.70;91.60
12013;DHT22;6065;48.138;16.402;2023-06-04T09:47:40;19.80;91.70
12013;DHT22;6065;48.138;16.402;2023-06-04T09:50:07;19.80;91.60
12013;DHT22;6065;48.138;16.402;2023-06-04T09:52:34;19.80;91.40
12013;DHT22;6065;48.138;16.402;2023-06-04T09:55:03;19.80;91.30
12013;DHT22;6065;48.138;16.402;2023-06-04T09:57:29;19.80;91.40
12013;DHT22;6065;48.138;16.402;2023-06-04T09:59:57;19.80;91.20
12013;DHT22;6065;48.138;16.402;2023-06-04T10:02:26;19.70;90.90
12013;DHT22;6065;48.138;16.402;2023-06-04T10:04:56;19.70;91.20
12013;DHT22;6065;48.138;16.402;2023-06-04T10:07:23;19.70;91.40
12013;DHT22;6065;48.138;16.402;2023-06-04T10:09:50;19.70;91.50
12013;DHT22;6065;48.138;16.402;2023-06-04T10:12:17;19.70;91.50
12013;DHT22;6065;48.138;16.402;2023-06-04T10:14:47;19.70;91.50
12013;DHT22;6065;48.138;16.402;2023-06-04T10:17:17;19.80;91.50
12013;DHT22;6065;48.138;16.402;2023-06-04T10:19:48;19.80;91.70
12013;DHT22;6065;48.138;16.402;2023-06-04T10:22:17;19.90;91.50
12013;DHT22;6065;48.138;16.402;2023-06-04T10:24:44;19.90;91.30
12013;DHT22;6065;48.138;16.402;2023-06-04T10:27:10;19.90;91.50
12013;DHT22;6065;48.138;16.402;2023-06-04T10:29:38;19.90;91.40
12013;DHT22;6065;48.138;16.402;2023-06-04T10:32:05;19.90;91.50
12013;DHT22;6065;48.138;16.402;2023-06-04T10:34:32;19.90;91.60
12013;DHT22;6065;48.138;16.402;2023-06-04T10:37:00;20.10;91.50
12013;DHT22;6065;48.138;16.402;2023-06-04T10:39:28;20.20;91.40
12013;DHT22;6065;48.138;16.402;2023-06-04T10:41:58;20.40;91.30
12013;DHT22;6065;48.138;16.402;2023-06-04T10:44:25;20.50;91.40
12013;DHT22;6065;48.138;16.402;2023-06-04T10:46:52;20.70;90.80
12013;DHT22;6065;48.138;16.402;2023-06-04T10:49:25;20.80;90.90
12013;DHT22;6065;48.138;16.402;2023-06-04T10:51:52;20.80;90.70
12013;DHT22;6065;48.138;16.402;2023-06-04T10:54:23;20.90;90.90
12013;DHT22;6065;48.138;16.402;2023-06-04T10:56:51;21.00;90.80
12013;DHT22;6065;48.138;16.402;2023-06-04T10:59:18;21.20;91.30
12013;DHT22;6065;48.138;16.402;2023-06-04T11:01:45;21.40;90.40
12013;DHT22;6065;48.138;16.402;2023-06-04T11:04:19;21.50;90.00
12013;DHT22;6065;48.138;16.402;2023-06-04T11:06:46;21.60;90.10
12013;DHT22;6065;48.138;16.402;2023-06-04T11:09:13;21.60;90.10
12013;DHT22;6065;48.138;16.402;2023-06-04T11:11:43;21.50;89.40
12013;DHT22;6065;48.138;16.402;2023-06-04T11:14:12;21.50;90.30
12013;DHT22;6065;48.138;16.402;2023-06-04T11:16:39;21.60;90.30
12013;DHT22;6065;48.138;16.402;2023-06-04T11:19:06;21.50;89.60
12013;DHT22;6065;48.138;16.402;2023-06-04T11:21:33;21.50;90.20
12013;DHT22;6065;48.138;16.402;2023-06-04T11:24:01;21.40;90.20
12013;DHT22;6065;48.138;16.402;2023-06-04T11:26:29;21.40;90.10
12013;DHT22;6065;48.138;16.402;2023-06-04T11:28:58;21.30;90.00
12013;DHT22;6065;48.138;16.402;2023-06-04T11:31:24;21.30;90.00
12013;DHT22;6065;48.138;16.402;2023-06-04T11:33:51;21.30;90.30
12013;DHT22;6065;48.138;16.402;2023-06-04T11:36:24;21.30;91.00
12013;DHT22;6065;48.138;16.402;2023-06-04T11:38:55;21.40;90.90
12013;DHT22;6065;48.138;16.402;2023-06-04T11:41:23;21.50;90.90
12013;DHT22;6065;48.138;16.402;2023-06-04T11:43:50;21.60;90.80
12013;DHT22;6065;48.138;16.402;2023-06-04T11:46:18;21.70;90.80
12013;DHT22;6065;48.138;16.402;2023-06-04T11:48:45;21.80;90.60
12013;DHT22;6065;48.138;16.402;2023-06-04T11:51:12;21.80;90.40
12013;DHT22;6065;48.138;16.402;2023-06-04T11:53:39;21.80;90.10
12013;DHT22;6065;48.138;16.402;2023-06-04T11:56:05;21.80;90.40
12013;DHT22;6065;48.138;16.402;2023-06-04T11:58:32;21.70;89.60
12013;DHT22;6065;48.138;16.402;2023-06-04T12:00:59;21.70;90.10
12013;DHT22;6065;48.138;16.402;2023-06-04T12:03:34;21.70;90.00
12013;DHT22;6065;48.138;16.402;2023-06-04T12:06:11;21.70;90.20
12013;DHT22;6065;48.138;16.402;2023-06-04T12:08:48;21.70;90.10
12013;DHT22;6065;48.138;16.402;2023-06-04T12:11:28;21.60;90.00
12013;DHT22;6065;48.138;16.402;2023-06-04T12:13:57;21.60;90.60
12013;DHT22;6065;48.138;16.402;2023-06-04T12:16:24;21.70;90.80
12013;DHT22;6065;48.138;16.402;2023-06-04T12:18:52;21.70;90.60
12013;DHT22;6065;48.138;16.402;2023-06-04T12:21:30;21.80;90.50
12013;DHT22;6065;48.138;16.402;2023-06-04T12:24:05;21.90;90.40
12013;DHT22;6065;48.138;16.402;2023-06-04T12:26:32;21.90;90.80
12013;DHT22;6065;48.138;16.402;2023-06-04T12:29:06;22.00;90.60
12013;DHT22;6065;48.138;16.402;2023-06-04T12:31:33;22.00;90.60
12013;DHT22;6065;48.138;16.402;2023-06-04T12:34:02;21.90;90.30
12013;DHT22;6065;48.138;16.402;2023-06-04T12:36:28;21.90;90.30
12013;DHT22;6065;48.138;16.402;2023-06-04T12:38:57;21.90;90.80
12013;DHT22;6065;48.138;16.402;2023-06-04T12:41:24;21.90;91.00
12013;DHT22;6065;48.138;16.402;2023-06-04T12:43:51;21.90;90.70
12013;DHT22;6065;48.138;16.402;2023-06-04T12:46:18;21.90;90.70
12013;DHT22;6065;48.138;16.402;2023-06-04T12:48:45;21.90;91.00
12013;DHT22;6065;48.138;16.402;2023-06-04T12:51:13;21.90;91.30
12013;DHT22;6065;48.138;16.402;2023-06-04T12:53:40;21.90;91.10
12013;DHT22;6065;48.138;16.402;2023-06-04T12:56:06;21.90;90.90
12013;DHT22;6065;48.138;16.402;2023-06-04T12:58:33;21.90;91.30
12013;DHT22;6065;48.138;16.402;2023-06-04T13:01:00;21.80;91.10
12013;DHT22;6065;48.138;16.402;2023-06-04T13:03:27;21.70;91.10
12013;DHT22;6065;48.138;16.402;2023-06-04T13:05:54;21.70;91.30
12013;DHT22;6065;48.138;16.402;2023-06-04T13:08:22;21.60;91.20
12013;DHT22;6065;48.138;16.402;2023-06-04T13:10:49;21.60;91.60
12013;DHT22;6065;48.138;16.402;2023-06-04T13:13:17;21.60;91.80
12013;DHT22;6065;48.138;16.402;2023-06-04T13:15:44;21.60;91.80
12013;DHT22;6065;48.138;16.402;2023-06-04T13:18:10;21.60;92.00
12013;DHT22;6065;48.138;16.402;2023-06-04T13:20:37;21.60;92.20
12013;DHT22;6065;48.138;16.402;2023-06-04T13:23:06;21.60;92.00
12013;DHT22;6065;48.138;16.402;2023-06-04T13:25:34;21.60;91.90
12013;DHT22;6065;48.138;16.402;2023-06-04T13:28:01;21.60;92.00
12013;DHT22;6065;48.138;16.402;2023-06-04T13:30:27;21.60;92.30
12013;DHT22;6065;48.138;16.402;2023-06-04T13:32:54;21.50;92.30
12013;DHT22;6065;48.138;16.402;2023-06-04T13:35:21;21.50;92.30
12013;DHT22;6065;48.138;16.402;2023-06-04T13:37:48;21.50;92.50
12013;DHT22;6065;48.138;16.402;2023-06-04T13:40:15;21.40;92.40
12013;DHT22;6065;48.138;16.402;2023-06-04T13:42:43;21.50;92.70
12013;DHT22;6065;48.138;16.402;2023-06-04T13:45:10;21.50;92.90
12013;DHT22;6065;48.138;16.402;2023-06-04T13:47:36;21.50;92.80
12013;DHT22;6065;48.138;16.402;2023-06-04T13:50:03;21.50;92.70
12013;DHT22;6065;48.138;16.402;2023-06-04T13:52:30;21.50;92.40
12013;DHT22;6065;48.138;16.402;2023-06-04T13:54:57;21.50;92.20
12013;DHT22;6065;48.138;16.402;2023-06-04T13:57:25;21.50;92.50
12013;DHT22;6065;48.138;16.402;2023-06-04T13:59:53;21.50;92.40
12013;DHT22;6065;48.138;16.402;2023-06-04T14:02:19;21.50;92.30
12013;DHT22;6065;48.138;16.402;2023-06-04T14:04:46;21.50;92.00
12013;DHT22;6065;48.138;16.402;2023-06-04T14:07:13;21.50;91.60
12013;DHT22;6065;48.138;16.402;2023-06-04T14:09:40;21.50;91.70
12013;DHT22;6065;48.138;16.402;2023-06-04T14:12:07;21.40;90.90
12013;DHT22;6065;48.138;16.402;2023-06-04T14:14:34;21.40;91.00
12013;DHT22;6065;48.138;16.402;2023-06-04T14:17:04;21.50;91.40
12013;DHT22;6065;48.138;16.402;2023-06-04T14:19:31;21.40;90.70
12013;DHT22;6065;48.138;16.402;2023-06-04T14:21:58;21.40;90.80
12013;DHT22;6065;48.138;16.402;2023-06-04T14:24:25;21.40;90.80
12013;DHT22;6065;48.138;16.402;2023-06-04T14:26:51;21.40;90.80
12013;DHT22;6065;48.138;16.402;2023-06-04T14:29:18;21.40;90.80
12013;DHT22;6065;48.138;16.402;2023-06-04T14:31:45;21.50;90.70
12013;DHT22;6065;48.138;16.402;2023-06-04T14:34:13;21.60;90.50
12013;DHT22;6065;48.138;16.402;2023-06-04T14:36:40;21.60;90.60
12013;DHT22;6065;48.138;16.402;2023-06-04T14:39:06;21.60;90.70
12013;DHT22;6065;48.138;16.402;2023-06-04T14:41:33;21.60;90.60
12013;DHT22;6065;48.138;16.402;2023-06-04T14:44:00;21.60;90.90
12013;DHT22;6065;48.138;16.402;2023-06-04T14:46:27;21.60;91.10
12013;DHT22;6065;48.138;16.402;2023-06-04T14:48:53;21.40;91.10
12013;DHT22;6065;48.138;16.402;2023-06-04T14:51:21;21.40;91.50
12013;DHT22;6065;48.138;16.402;2023-06-04T14:53:48;21.40;91.70
12013;DHT22;6065;48.138;16.402;2023-06-04T14:56:16;21.40;91.80
12013;DHT22;6065;48.138;16.402;2023-06-04T14:58:43;21.30;92.30
12013;DHT22;6065;48.138;16.402;2023-06-04T15:01:09;21.10;92.40
12013;DHT22;6065;48.138;16.402;2023-06-04T15:03:37;21.10;92.90
12013;DHT22;6065;48.138;16.402;2023-06-04T15:06:04;21.10;93.10
12013;DHT22;6065;48.138;16.402;2023-06-04T15:08:32;21.20;93.20
12013;DHT22;6065;48.138;16.402;2023-06-04T15:10:59;21.20;93.20
12013;DHT22;6065;48.138;16.402;2023-06-04T15:13:26;21.20;93.50
12013;DHT22;6065;48.138;16.402;2023-06-04T15:15:53;21.30;93.70
12013;DHT22;6065;48.138;16.402;2023-06-04T15:18:19;21.20;93.70
12013;DHT22;6065;48.138;16.402;2023-06-04T15:20:46;21.20;93.80
12013;DHT22;6065;48.138;16.402;2023-06-04T15:23:13;21.20;93.80
12013;DHT22;6065;48.138;16.402;2023-06-04T15:25:41;21.20;94.00
12013;DHT22;6065;48.138;16.402;2023-06-04T15:28:07;21.10;93.90
12013;DHT22;6065;48.138;16.402;2023-06-04T15:30:34;21.10;94.00
12013;DHT22;6065;48.138;16.402;2023-06-04T15:33:01;21.10;94.10